sensor_id;sensor_type;location;lat;lon;timestamp;P1;durP1;ratioP1;P2;durP2;ratioP2
23543;SDS011;11950;51.230;4.012;2023-06-22T00:00:53;5.60;;;3.42;;
23543;SDS011;11950;51.230;4.012;2023-06-22T00:03:20;6.38;;;3.83;;
23543;SDS011;11950;51.230;4.012;2023-06-22T00:05:48;6.50;;;4.18;;
23543;SDS011;11950;51.230;4.012;2023-06-22T00:08:15;5.05;;;3.67;;
23543;SDS011;11950;51.230;4.012;2023-06-22T00:10:42;4.75;;;3.63;;
23543;SDS011;11950;51.230;4.012;2023-06-22T00:13:08;6.72;;;4.15;;
23543;SDS011;11950;51.230;4.012;2023-06-22T00:15:36;7.63;;;4.18;;
23543;SDS011;11950;51.230;4.012;2023-06-22T00:18:06;6.00;;;4.45;;
23543;SDS011;11950;51.230;4.012;2023-06-22T00:20:33;6.03;;;4.20;;
23543;SDS011;11950;51.230;4.012;2023-06-22T00:23:03;4.40;;;3.47;;
23543;SDS011;11950;51.230;4.012;2023-06-22T00:25:39;7.05;;;3.78;;
23543;SDS011;11950;51.230;4.012;2023-06-22T00:28:06;4.20;;;3.45;;
23543;SDS011;11950;51.230;4.012;2023-06-22T00:30:34;7.00;;;3.70;;
23543;SDS011;11950;51.230;4.012;2023-06-22T00:33:01;8.23;;;3.80;;
23543;SDS011;11950;51.230;4.012;2023-06-22T00:35:27;5.68;;;3.70;;
23543;SDS011;11950;51.230;4.012;2023-06-22T00:37:57;5.30;;;3.83;;
23543;SDS011;11950;51.230;4.012;2023-06-22T00:40:28;4.97;;;4.00;;
23543;SDS011;11950;51.230;4.012;2023-06-22T00:42:58;4.75;;;4.15;;
23543;SDS011;11950;51.230;4.012;2023-06-22T00:45:25;6.15;;;4.10;;
23543;SDS011;11950;51.230;4.012;2023-06-22T00:47:52;6.65;;;4.72;;
23543;SDS011;11950;51.230;4.012;2023-06-22T00:50:20;4.97;;;4.22;;
23543;SDS011;11950;51.230;4.012;2023-06-22T00:52:52;5.82;;;3.78;;
23543;SDS011;11950;51.230;4.012;2023-06-22T00:55:22;4.90;;;3.85;;
23543;SDS011;11950;51.230;4.012;2023-06-22T00:57:49;6.55;;;4.18;;
23543;SDS011;11950;51.230;4.012;2023-06-22T01:00:16;3.80;;;3.50;;
23543;SDS011;11950;51.230;4.012;2023-06-22T01:02:45;6.18;;;4.05;;
23543;SDS011;11950;51.230;4.012;2023-06-22T01:05:16;3.92;;;3.50;;
23543;SDS011;11950;51.230;4.012;2023-06-22T01:08:01;3.88;;;3.30;;
23543;SDS011;11950;51.230;4.012;2023-06-22T01:11:13;4.05;;;3.65;;
23543;SDS011;11950;51.230;4.012;2023-06-22T01:13:50;3.78;;;3.47;;
23543;SDS011;11950;51.230;4.012;2023-06-22T01:16:34;5.20;;;4.00;;
23543;SDS011;11950;51.230;4.012;2023-06-22T01:22:07;8.15;;;4.35;;
23543;SDS011;11950;51.230;4.012;2023-06-22T01:29:52;5.75;;;3.42;;
23543;SDS011;11950;51.230;4.012;2023-06-22T01:32:28;5.68;;;4.00;;
23543;SDS011;11950;51.230;4.012;2023-06-22T01:34:57;6.47;;;4.05;;
23543;SDS011;11950;51.230;4.012;2023-06-22T01:37:26;5.28;;;3.53;;
23543;SDS011;11950;51.230;4.012;2023-06-22T01:39:58;4.63;;;3.83;;
23543;SDS011;11950;51.230;4.012;2023-06-22T01:42:24;7.75;;;3.88;;
23543;SDS011;11950;51.230;4.012;2023-06-22T01:44:52;4.78;;;4.13;;
23543;SDS011;11950;51.230;4.012;2023-06-22T01:47:22;4.65;;;3.80;;
23543;SDS011;11950;51.230;4.012;2023-06-22T01:49:50;5.78;;;3.50;;
23543;SDS011;11950;51.230;4.012;2023-06-22T01:52:20;6.22;;;4.05;;
23543;SDS011;11950;51.230;4.012;2023-06-22T01:54:47;4.22;;;3.63;;
23543;SDS011;11950;51.230;4.012;2023-06-22T01:57:13;5.13;;;3.97;;
23543;SDS011;11950;51.230;4.012;2023-06-22T01:59:59;4.57;;;3.72;;
23543;SDS011;11950;51.230;4.012;2023-06-22T02:02:32;5.13;;;3.70;;
23543;SDS011;11950;51.230;4.012;2023-06-22T02:05:05;5.90;;;3.70;;
23543;SDS011;11950;51.230;4.012;2023-06-22T02:07:41;6.93;;;4.70;;
23543;SDS011;11950;51.230;4.012;2023-06-22T02:10:14;5.53;;;4.22;;
23543;SDS011;11950;51.230;4.012;2023-06-22T02:12:42;6.03;;;4.38;;
23543;SDS011;11950;51.230;4.012;2023-06-22T02:15:10;6.32;;;4.10;;
23543;SDS011;11950;51.230;4.012;2023-06-22T02:17:38;4.85;;;3.95;;
23543;SDS011;11950;51.230;4.012;2023-06-22T02:20:05;5.28;;;3.63;;
23543;SDS011;11950;51.230;4.012;2023-06-22T02:22:35;5.03;;;3.65;;
23543;SDS011;11950;51.230;4.012;2023-06-22T02:25:02;6.03;;;3.58;;
23543;SDS011;11950;51.230;4.012;2023-06-22T02:27:28;5.82;;;3.75;;
23543;SDS011;11950;51.230;4.012;2023-06-22T02:29:54;7.22;;;3.92;;
23543;SDS011;11950;51.230;4.012;2023-06-22T02:32:20;6.45;;;3.72;;
23543;SDS011;11950;51.230;4.012;2023-06-22T02:34:47;5.15;;;3.60;;
23543;SDS011;11950;51.230;4.012;2023-06-22T02:37:15;4.45;;;3.83;;
23543;SDS011;11950;51.230;4.012;2023-06-22T02:39:42;4.68;;;4.18;;
23543;SDS011;11950;51.230;4.012;2023-06-22T02:42:08;6.25;;;4.18;;
23543;SDS011;11950;51.230;4.012;2023-06-22T02:44:36;5.32;;;4.35;;
23543;SDS011;11950;51.230;4.012;2023-06-22T02:47:03;6.22;;;3.83;;
23543;SDS011;11950;51.230;4.012;2023-06-22T02:49:29;5.40;;;4.15;;
23543;SDS011;11950;51.230;4.012;2023-06-22T02:51:57;7.68;;;4.60;;
23543;SDS011;11950;51.230;4.012;2023-06-22T02:54:23;4.97;;;3.97;;
23543;SDS011;11950;51.230;4.012;2023-06-22T02:56:52;4.57;;;3.72;;
23543;SDS011;11950;51.230;4.012;2023-06-22T02:59:20;4.60;;;4.20;;
23543;SDS011;11950;51.230;4.012;2023-06-22T03:01:52;4.25;;;3.72;;
23543;SDS011;11950;51.230;4.012;2023-06-22T03:04:23;4.63;;;3.92;;
23543;SDS011;11950;51.230;4.012;2023-06-22T03:06:49;6.47;;;3.80;;
23543;SDS011;11950;51.230;4.012;2023-06-22T03:09:17;6.70;;;3.83;;
23543;SDS011;11950;51.230;4.012;2023-06-22T03:11:43;5.28;;;4.18;;
23543;SDS011;11950;51.230;4.012;2023-06-22T03:14:09;5.45;;;3.95;;
23543;SDS011;11950;51.230;4.012;2023-06-22T03:16:36;9.23;;;4.18;;
23543;SDS011;11950;51.230;4.012;2023-06-22T03:19:02;4.53;;;4.10;;
23543;SDS011;11950;51.230;4.012;2023-06-22T03:21:28;4.70;;;3.90;;
23543;SDS011;11950;51.230;4.012;2023-06-22T03:23:55;5.38;;;3.80;;
23543;SDS011;11950;51.230;4.012;2023-06-22T03:26:21;5.63;;;3.97;;
23543;SDS011;11950;51.230;4.012;2023-06-22T03:28:49;5.10;;;4.60;;
23543;SDS011;11950;51.230;4.012;2023-06-22T03:31:16;6.00;;;3.50;;
23543;SDS011;11950;51.230;4.012;2023-06-22T03:33:42;7.18;;;4.10;;
23543;SDS011;11950;51.230;4.012;2023-06-22T03:36:08;5.82;;;4.15;;
23543;SDS011;11950;51.230;4.012;2023-06-22T03:38:34;6.63;;;4.43;;
23543;SDS011;11950;51.230;4.012;2023-06-22T03:41:01;4.80;;;3.83;;
23543;SDS011;11950;51.230;4.012;2023-06-22T03:43:29;7.43;;;4.40;;
23543;SDS011;11950;51.230;4.012;2023-06-22T03:45:55;4.80;;;4.13;;
23543;SDS011;11950;51.230;4.012;2023-06-22T03:48:22;5.45;;;3.95;;
23543;SDS011;11950;51.230;4.012;2023-06-22T03:50:48;7.78;;;4.25;;
23543;SDS011;11950;51.230;4.012;2023-06-22T03:53:14;5.97;;;3.83;;
23543;SDS011;11950;51.230;4.012;2023-06-22T03:55:47;7.18;;;3.97;;
23543;SDS011;11950;51.230;4.012;2023-06-22T03:58:16;6.05;;;4.28;;
23543;SDS011;11950;51.230;4.012;2023-06-22T04:00:47;8.25;;;4.57;;
23543;SDS011;11950;51.230;4.012;2023-06-22T04:03:14;5.97;;;4.68;;
23543;SDS011;11950;51.230;4.012;2023-06-22T04:05:40;5.13;;;4.10;;
23543;SDS011;11950;51.230;4.012;2023-06-22T04:08:07;5.00;;;3.78;;
23543;SDS011;11950;51.230;4.012;2023-06-22T04:10:33;7.30;;;4.05;;
23543;SDS011;11950;51.230;4.012;2023-06-22T04:13:00;6.63;;;4.07;;
23543;SDS011;11950;51.230;4.012;2023-06-22T04:15:26;7.38;;;3.72;;
23543;SDS011;11950;51.230;4.012;2023-06-22T04:17:54;6.32;;;4.30;;
23543;SDS011;11950;51.230;4.012;2023-06-22T04:20:20;4.97;;;3.20;;
23543;SDS011;11950;51.230;4.012;2023-06-22T04:22:47;7.72;;;4.60;;
23543;SDS011;11950;51.230;4.012;2023-06-22T04:25:13;7.72;;;4.82;;
23543;SDS011;11950;51.230;4.012;2023-06-22T04:27:41;8.07;;;4.97;;
23543;SDS011;11950;51.230;4.012;2023-06-22T04:30:07;9.45;;;4.82;;
23543;SDS011;11950;51.230;4.012;2023-06-22T04:32:34;7.10;;;4.47;;
23543;SDS011;11950;51.230;4.012;2023-06-22T04:35:05;6.10;;;4.55;;
23543;SDS011;11950;51.230;4.012;2023-06-22T04:37:32;6.35;;;4.88;;
23543;SDS011;11950;51.230;4.012;2023-06-22T04:39:59;7.55;;;5.38;;
23543;SDS011;11950;51.230;4.012;2023-06-22T04:42:26;8.57;;;5.22;;
23543;SDS011;11950;51.230;4.012;2023-06-22T04:44:52;8.45;;;5.32;;
23543;SDS011;11950;51.230;4.012;2023-06-22T04:47:19;7.40;;;5.15;;
23543;SDS011;11950;51.230;4.012;2023-06-22T04:49:45;7.78;;;5.90;;
23543;SDS011;11950;51.230;4.012;2023-06-22T04:52:12;7.90;;;5.35;;
23543;SDS011;11950;51.230;4.012;2023-06-22T04:54:40;9.90;;;5.95;;
23543;SDS011;11950;51.230;4.012;2023-06-22T04:57:13;7.35;;;5.28;;
23543;SDS011;11950;51.230;4.012;2023-06-22T04:59:40;7.75;;;5.20;;
23543;SDS011;11950;51.230;4.012;2023-06-22T05:02:07;8.10;;;4.68;;
23543;SDS011;11950;51.230;4.012;2023-06-22T05:04:34;6.97;;;5.28;;
23543;SDS011;11950;51.230;4.012;2023-06-22T05:07:06;10.50;;;5.85;;
23543;SDS011;11950;51.230;4.012;2023-06-22T05:09:32;9.20;;;6.50;;
23543;SDS011;11950;51.230;4.012;2023-06-22T05:11:59;10.35;;;6.53;;
23543;SDS011;11950;51.230;4.012;2023-06-22T05:14:28;8.95;;;6.57;;
23543;SDS011;11950;51.230;4.012;2023-06-22T05:16:55;9.02;;;6.43;;
23543;SDS011;11950;51.230;4.012;2023-06-22T05:19:24;13.77;;;8.02;;
23543;SDS011;11950;51.230;4.012;2023-06-22T05:21:57;10.13;;;7.22;;
23543;SDS011;11950;51.230;4.012;2023-06-22T05:24:23;9.38;;;6.88;;
23543;SDS011;11950;51.230;4.012;2023-06-22T05:26:49;14.30;;;7.50;;
23543;SDS011;11950;51.230;4.012;2023-06-22T05:29:15;11.45;;;7.97;;
23543;SDS011;11950;51.230;4.012;2023-06-22T05:31:42;16.42;;;8.25;;
23543;SDS011;11950;51.230;4.012;2023-06-22T05:34:08;12.63;;;7.93;;
23543;SDS011;11950;51.230;4.012;2023-06-22T05:36:34;11.05;;;7.60;;
23543;SDS011;11950;51.230;4.012;2023-06-22T05:39:10;11.52;;;7.70;;
23543;SDS011;11950;51.230;4.012;2023-06-22T05:41:39;12.75;;;9.18;;
23543;SDS011;11950;51.230;4.012;2023-06-22T05:44:05;12.40;;;7.97;;
23543;SDS011;11950;51.230;4.012;2023-06-22T05:46:32;10.43;;;8.48;;
23543;SDS011;11950;51.230;4.012;2023-06-22T05:48:58;11.45;;;9.07;;
23543;SDS011;11950;51.230;4.012;2023-06-22T05:51:24;14.95;;;8.82;;
23543;SDS011;11950;51.230;4.012;2023-06-22T05:53:50;14.55;;;9.57;;
23543;SDS011;11950;51.230;4.012;2023-06-22T05:56:17;12.23;;;8.50;;
23543;SDS011;11950;51.230;4.012;2023-06-22T05:58:43;11.23;;;7.70;;
23543;SDS011;11950;51.230;4.012;2023-06-22T06:01:09;11.45;;;8.23;;
23543;SDS011;11950;51.230;4.012;2023-06-22T06:03:36;10.23;;;7.68;;
23543;SDS011;11950;51.230;4.012;2023-06-22T06:06:07;15.10;;;8.23;;
23543;SDS011;11950;51.230;4.012;2023-06-22T06:08:33;12.98;;;9.20;;
23543;SDS011;11950;51.230;4.012;2023-06-22T06:11:00;14.05;;;9.07;;
23543;SDS011;11950;51.230;4.012;2023-06-22T06:13:26;13.98;;;9.35;;
23543;SDS011;11950;51.230;4.012;2023-06-22T06:15:52;13.65;;;9.52;;
23543;SDS011;11950;51.230;4.012;2023-06-22T06:18:20;13.93;;;9.50;;
23543;SDS011;11950;51.230;4.012;2023-06-22T06:20:47;14.80;;;9.68;;
23543;SDS011;11950;51.230;4.012;2023-06-22T06:23:13;13.98;;;10.27;;
23543;SDS011;11950;51.230;4.012;2023-06-22T06:25:39;16.17;;;11.95;;
23543;SDS011;11950;51.230;4.012;2023-06-22T06:28:05;19.13;;;11.85;;
23543;SDS011;11950;51.230;4.012;2023-06-22T06:30:32;17.13;;;13.98;;
23543;SDS011;11950;51.230;4.012;2023-06-22T06:32:58;20.90;;;15.10;;
23543;SDS011;11950;51.230;4.012;2023-06-22T06:35:25;18.55;;;13.70;;
23543;SDS011;11950;51.230;4.012;2023-06-22T06:37:51;20.02;;;14.10;;
23543;SDS011;11950;51.230;4.012;2023-06-22T06:40:18;22.88;;;15.38;;
23543;SDS011;11950;51.230;4.012;2023-06-22T06:42:45;19.35;;;14.63;;
23543;SDS011;11950;51.230;4.012;2023-06-22T06:45:15;19.60;;;13.18;;
23543;SDS011;11950;51.230;4.012;2023-06-22T06:47:43;20.33;;;16.15;;
23543;SDS011;11950;51.230;4.012;2023-06-22T06:50:10;21.23;;;15.68;;
23543;SDS011;11950;51.230;4.012;2023-06-22T06:52:37;22.88;;;15.77;;
23543;SDS011;11950;51.230;4.012;2023-06-22T06:55:04;22.58;;;15.75;;
23543;SDS011;11950;51.230;4.012;2023-06-22T06:57:33;22.80;;;15.27;;
23543;SDS011;11950;51.230;4.012;2023-06-22T07:00:00;20.85;;;14.57;;
23543;SDS011;11950;51.230;4.012;2023-06-22T07:02:26;25.38;;;17.88;;
23543;SDS011;11950;51.230;4.012;2023-06-22T07:04:55;20.40;;;16.25;;
23543;SDS011;11950;51.230;4.012;2023-06-22T07:07:21;21.52;;;15.93;;
23543;SDS011;11950;51.230;4.012;2023-06-22T07:09:47;20.65;;;16.38;;
23543;SDS011;11950;51.230;4.012;2023-06-22T07:12:14;18.55;;;15.45;;
23543;SDS011;11950;51.230;4.012;2023-06-22T07:14:41;24.08;;;17.17;;
23543;SDS011;11950;51.230;4.012;2023-06-22T07:17:07;25.05;;;16.98;;
23543;SDS011;11950;51.230;4.012;2023-06-22T07:19:33;19.90;;;16.83;;
23543;SDS011;11950;51.230;4.012;2023-06-22T07:21:59;21.85;;;16.63;;
23543;SDS011;11950;51.230;4.012;2023-06-22T07:24:26;20.00;;;15.93;;
23543;SDS011;11950;51.230;4.012;2023-06-22T07:26:53;18.13;;;14.88;;
23543;SDS011;11950;51.230;4.012;2023-06-22T07:29:19;16.23;;;14.02;;
23543;SDS011;11950;51.230;4.012;2023-06-22T07:31:49;17.52;;;14.32;;
23543;SDS011;11950;51.230;4.012;2023-06-22T07:34:17;18.80;;;14.75;;
23543;SDS011;11950;51.230;4.012;2023-06-22T07:36:44;17.90;;;15.18;;
23543;SDS011;11950;51.230;4.012;2023-06-22T07:39:10;20.42;;;14.50;;
23543;SDS011;11950;51.230;4.012;2023-06-22T07:41:38;18.30;;;14.05;;
23543;SDS011;11950;51.230;4.012;2023-06-22T07:44:07;18.48;;;15.02;;
23543;SDS011;11950;51.230;4.012;2023-06-22T07:46:33;17.80;;;14.27;;
23543;SDS011;11950;51.230;4.012;2023-06-22T07:49:00;16.63;;;13.88;;
23543;SDS011;11950;51.230;4.012;2023-06-22T07:51:27;16.05;;;13.20;;
23543;SDS011;11950;51.230;4.012;2023-06-22T07:53:53;18.17;;;14.90;;
23543;SDS011;11950;51.230;4.012;2023-06-22T07:56:20;19.20;;;14.85;;
23543;SDS011;11950;51.230;4.012;2023-06-22T07:58:46;18.40;;;14.52;;
23543;SDS011;11950;51.230;4.012;2023-06-22T08:01:13;22.70;;;16.17;;
23543;SDS011;11950;51.230;4.012;2023-06-22T08:03:40;17.25;;;14.50;;
23543;SDS011;11950;51.230;4.012;2023-06-22T08:06:07;18.02;;;13.80;;
23543;SDS011;11950;51.230;4.012;2023-06-22T08:08:35;21.30;;;16.63;;
23543;SDS011;11950;51.230;4.012;2023-06-22T08:11:02;17.95;;;14.68;;
23543;SDS011;11950;51.230;4.012;2023-06-22T08:13:28;19.73;;;14.50;;
23543;SDS011;11950;51.230;4.012;2023-06-22T08:15:54;18.60;;;13.65;;
23543;SDS011;11950;51.230;4.012;2023-06-22T08:18:21;18.55;;;14.82;;
23543;SDS011;11950;51.230;4.012;2023-06-22T08:20:47;18.20;;;14.38;;
23543;SDS011;11950;51.230;4.012;2023-06-22T08:23:13;17.00;;;13.45;;
23543;SDS011;11950;51.230;4.012;2023-06-22T08:25:39;16.48;;;12.52;;
23543;SDS011;11950;51.230;4.012;2023-06-22T08:28:05;18.98;;;13.60;;
23543;SDS011;11950;51.230;4.012;2023-06-22T08:30:32;16.42;;;12.68;;
23543;SDS011;11950;51.230;4.012;2023-06-22T08:32:58;17.73;;;13.70;;
23543;SDS011;11950;51.230;4.012;2023-06-22T08:35:25;15.15;;;12.85;;
23543;SDS011;11950;51.230;4.012;2023-06-22T08:37:51;13.80;;;11.95;;
23543;SDS011;11950;51.230;4.012;2023-06-22T08:40:20;14.40;;;9.80;;
23543;SDS011;11950;51.230;4.012;2023-06-22T08:42:47;9.63;;;7.72;;
23543;SDS011;11950;51.230;4.012;2023-06-22T08:45:13;9.18;;;6.68;;
23543;SDS011;11950;51.230;4.012;2023-06-22T08:47:40;9.02;;;6.60;;
23543;SDS011;11950;51.230;4.012;2023-06-22T08:50:10;7.60;;;5.90;;
23543;SDS011;11950;51.230;4.012;2023-06-22T08:52:38;7.55;;;5.00;;
23543;SDS011;11950;51.230;4.012;2023-06-22T08:55:07;6.47;;;5.40;;
23543;SDS011;11950;51.230;4.012;2023-06-22T08:57:35;5.68;;;4.80;;
23543;SDS011;11950;51.230;4.012;2023-06-22T09:00:05;5.60;;;4.85;;
23543;SDS011;11950;51.230;4.012;2023-06-22T09:02:38;5.70;;;4.88;;
23543;SDS011;11950;51.230;4.012;2023-06-22T09:05:06;6.50;;;4.82;;
23543;SDS011;11950;51.230;4.012;2023-06-22T09:07:32;6.82;;;4.40;;
23543;SDS011;11950;51.230;4.012;2023-06-22T09:10:00;6.88;;;4.68;;
23543;SDS011;11950;51.230;4.012;2023-06-22T09:12:26;6.68;;;4.13;;
23543;SDS011;11950;51.230;4.012;2023-06-22T09:14:56;5.47;;;3.53;;
23543;SDS011;11950;51.230;4.012;2023-06-22T09:17:22;5.30;;;4.50;;
23543;SDS011;11950;51.230;4.012;2023-06-22T09:19:48;6.38;;;4.53;;
23543;SDS011;11950;51.230;4.012;2023-06-22T09:22:15;5.13;;;4.10;;
23543;SDS011;11950;51.230;4.012;2023-06-22T09:24:41;7.88;;;4.82;;
23543;SDS011;11950;51.230;4.012;2023-06-22T09:27:07;4.30;;;3.83;;
23543;SDS011;11950;51.230;4.012;2023-06-22T09:29:34;6.32;;;4.25;;
23543;SDS011;11950;51.230;4.012;2023-06-22T09:32:00;5.47;;;4.20;;
23543;SDS011;11950;51.230;4.012;2023-06-22T09:34:27;4.90;;;4.38;;
23543;SDS011;11950;51.230;4.012;2023-06-22T09:36:53;6.45;;;4.07;;
23543;SDS011;11950;51.230;4.012;2023-06-22T09:39:20;7.00;;;4.20;;
23543;SDS011;11950;51.230;4.012;2023-06-22T09:41:46;6.47;;;3.92;;
23543;SDS011;11950;51.230;4.012;2023-06-22T09:44:13;5.90;;;3.90;;
23543;SDS011;11950;51.230;4.012;2023-06-22T09:46:39;7.45;;;3.72;;
23543;SDS011;11950;51.230;4.012;2023-06-22T09:49:05;6.68;;;3.50;;
23543;SDS011;11950;51.230;4.012;2023-06-22T09:51:32;6.15;;;3.88;;
23543;SDS011;11950;51.230;4.012;2023-06-22T09:53:58;4.53;;;3.40;;
23543;SDS011;11950;51.230;4.012;2023-06-22T09:56:24;7.78;;;4.45;;
23543;SDS011;11950;51.230;4.012;2023-06-22T09:58:52;7.70;;;4.35;;
23543;SDS011;11950;51.230;4.012;2023-06-22T10:01:18;6.60;;;3.65;;
23543;SDS011;11950;51.230;4.012;2023-06-22T10:03:46;5.60;;;3.95;;
23543;SDS011;11950;51.230;4.012;2023-06-22T10:06:12;8.68;;;4.05;;
23543;SDS011;11950;51.230;4.012;2023-06-22T10:08:38;6.72;;;4.10;;
23543;SDS011;11950;51.230;4.012;2023-06-22T10:11:06;5.45;;;3.63;;
23543;SDS011;11950;51.230;4.012;2023-06-22T10:13:32;7.03;;;3.83;;
23543;SDS011;11950;51.230;4.012;2023-06-22T10:15:58;5.65;;;3.22;;
23543;SDS011;11950;51.230;4.012;2023-06-22T10:18:25;4.03;;;3.60;;
23543;SDS011;11950;51.230;4.012;2023-06-22T10:20:51;5.45;;;3.72;;
23543;SDS011;11950;51.230;4.012;2023-06-22T10:23:18;8.77;;;4.25;;
23543;SDS011;11950;51.230;4.012;2023-06-22T10:25:47;5.78;;;3.88;;
23543;SDS011;11950;51.230;4.012;2023-06-22T10:28:14;6.15;;;3.70;;
23543;SDS011;11950;51.230;4.012;2023-06-22T10:30:40;7.20;;;3.40;;
23543;SDS011;11950;51.230;4.012;2023-06-22T10:33:08;5.75;;;3.67;;
23543;SDS011;11950;51.230;4.012;2023-06-22T10:35:34;9.65;;;4.55;;
23543;SDS011;11950;51.230;4.012;2023-06-22T10:38:03;7.95;;;4.80;;
23543;SDS011;11950;51.230;4.012;2023-06-22T10:40:30;9.35;;;5.60;;
23543;SDS011;11950;51.230;4.012;2023-06-22T10:42:57;8.15;;;6.20;;
23543;SDS011;11950;51.230;4.012;2023-06-22T10:45:23;7.03;;;6.18;;
23543;SDS011;11950;51.230;4.012;2023-06-22T10:47:49;7.55;;;6.10;;
23543;SDS011;11950;51.230;4.012;2023-06-22T10:50:16;8.05;;;6.53;;
23543;SDS011;11950;51.230;4.012;2023-06-22T10:52:42;9.05;;;6.18;;
23543;SDS011;11950;51.230;4.012;2023-06-22T10:55:08;9.98;;;7.10;;
23543;SDS011;11950;51.230;4.012;2023-06-22T10:57:35;7.82;;;6.22;;
23543;SDS011;11950;51.230;4.012;2023-06-22T11:00:02;9.43;;;6.63;;
23543;SDS011;11950;51.230;4.012;2023-06-22T11:02:32;9.67;;;6.23;;
23543;SDS011;11950;51.230;4.012;2023-06-22T11:04:58;9.52;;;6.32;;
23543;SDS011;11950;51.230;4.012;2023-06-22T11:07:29;7.10;;;6.40;;
23543;SDS011;11950;51.230;4.012;2023-06-22T11:09:55;7.38;;;6.18;;
23543;SDS011;11950;51.230;4.012;2023-06-22T11:12:21;8.32;;;6.07;;
23543;SDS011;11950;51.230;4.012;2023-06-22T11:14:48;7.80;;;5.80;;
23543;SDS011;11950;51.230;4.012;2023-06-22T11:17:17;6.80;;;5.53;;
23543;SDS011;11950;51.230;4.012;2023-06-22T11:19:44;7.88;;;5.38;;
23543;SDS011;11950;51.230;4.012;2023-06-22T11:22:10;8.45;;;5.47;;
23543;SDS011;11950;51.230;4.012;2023-06-22T11:24:37;8.23;;;5.40;;
23543;SDS011;11950;51.230;4.012;2023-06-22T11:27:03;6.60;;;5.65;;
23543;SDS011;11950;51.230;4.012;2023-06-22T11:29:29;7.05;;;5.60;;
23543;SDS011;11950;51.230;4.012;2023-06-22T11:31:56;6.95;;;5.78;;
23543;SDS011;11950;51.230;4.012;2023-06-22T11:34:22;7.65;;;6.13;;
23543;SDS011;11950;51.230;4.012;2023-06-22T11:36:49;8.05;;;5.90;;
23543;SDS011;11950;51.230;4.012;2023-06-22T11:39:15;8.13;;;5.78;;
23543;SDS011;11950;51.230;4.012;2023-06-22T11:41:41;8.57;;;6.28;;
23543;SDS011;11950;51.230;4.012;2023-06-22T11:44:08;7.65;;;6.55;;
23543;SDS011;11950;51.230;4.012;2023-06-22T11:46:34;6.70;;;5.97;;
23543;SDS011;11950;51.230;4.012;2023-06-22T11:49:01;7.75;;;6.65;;
23543;SDS011;11950;51.230;4.012;2023-06-22T11:51:28;8.00;;;5.90;;
23543;SDS011;11950;51.230;4.012;2023-06-22T11:53:57;14.45;;;7.05;;
23543;SDS011;11950;51.230;4.012;2023-06-22T11:56:23;9.07;;;7.00;;
23543;SDS011;11950;51.230;4.012;2023-06-22T11:58:50;8.18;;;6.22;;
23543;SDS011;11950;51.230;4.012;2023-06-22T12:01:16;9.07;;;7.20;;
23543;SDS011;11950;51.230;4.012;2023-06-22T12:03:42;10.48;;;7.60;;
23543;SDS011;11950;51.230;4.012;2023-06-22T12:06:09;8.95;;;7.55;;
23543;SDS011;11950;51.230;4.012;2023-06-22T12:08:35;9.48;;;6.65;;
23543;SDS011;11950;51.230;4.012;2023-06-22T12:11:02;8.20;;;7.05;;
23543;SDS011;11950;51.230;4.012;2023-06-22T12:13:28;10.15;;;8.00;;
23543;SDS011;11950;51.230;4.012;2023-06-22T12:15:54;10.75;;;7.68;;
23543;SDS011;11950;51.230;4.012;2023-06-22T12:18:20;13.63;;;8.57;;
23543;SDS011;11950;51.230;4.012;2023-06-22T12:20:47;11.18;;;8.55;;
23543;SDS011;11950;51.230;4.012;2023-06-22T12:23:14;12.35;;;7.75;;
23543;SDS011;11950;51.230;4.012;2023-06-22T12:25:41;10.40;;;7.80;;
23543;SDS011;11950;51.230;4.012;2023-06-22T12:28:07;8.68;;;7.78;;
23543;SDS011;11950;51.230;4.012;2023-06-22T12:30:33;11.27;;;7.93;;
23543;SDS011;11950;51.230;4.012;2023-06-22T12:32:59;10.48;;;7.72;;
23543;SDS011;11950;51.230;4.012;2023-06-22T12:35:26;14.88;;;9.27;;
23543;SDS011;11950;51.230;4.012;2023-06-22T12:37:52;11.35;;;8.48;;
23543;SDS011;11950;51.230;4.012;2023-06-22T12:40:19;14.25;;;10.02;;
23543;SDS011;11950;51.230;4.012;2023-06-22T12:42:45;11.57;;;9.93;;
23543;SDS011;11950;51.230;4.012;2023-06-22T12:45:11;13.43;;;10.40;;
23543;SDS011;11950;51.230;4.012;2023-06-22T12:47:38;12.52;;;8.98;;
23543;SDS011;11950;51.230;4.012;2023-06-22T12:50:04;15.00;;;11.63;;
23543;SDS011;11950;51.230;4.012;2023-06-22T12:52:31;15.60;;;10.32;;
23543;SDS011;11950;51.230;4.012;2023-06-22T12:55:00;12.50;;;10.45;;
23543;SDS011;11950;51.230;4.012;2023-06-22T12:57:26;14.15;;;10.30;;
23543;SDS011;11950;51.230;4.012;2023-06-22T12:59:52;12.65;;;10.18;;
23543;SDS011;11950;51.230;4.012;2023-06-22T13:02:19;14.65;;;11.07;;
23543;SDS011;11950;51.230;4.012;2023-06-22T13:04:45;14.25;;;12.25;;
23543;SDS011;11950;51.230;4.012;2023-06-22T13:07:11;14.63;;;12.10;;
23543;SDS011;11950;51.230;4.012;2023-06-22T13:09:38;15.48;;;12.35;;
23543;SDS011;11950;51.230;4.012;2023-06-22T13:12:04;16.17;;;12.15;;
23543;SDS011;11950;51.230;4.012;2023-06-22T13:14:31;18.42;;;12.82;;
23543;SDS011;11950;51.230;4.012;2023-06-22T13:16:57;15.75;;;11.70;;
23543;SDS011;11950;51.230;4.012;2023-06-22T13:19:23;13.63;;;11.10;;
23543;SDS011;11950;51.230;4.012;2023-06-22T13:21:50;14.02;;;11.77;;
23543;SDS011;11950;51.230;4.012;2023-06-22T13:24:16;14.38;;;11.88;;
23543;SDS011;11950;51.230;4.012;2023-06-22T13:26:43;17.27;;;13.05;;
23543;SDS011;11950;51.230;4.012;2023-06-22T13:29:09;17.95;;;12.60;;
23543;SDS011;11950;51.230;4.012;2023-06-22T13:31:35;17.67;;;13.68;;
23543;SDS011;11950;51.230;4.012;2023-06-22T13:34:02;16.13;;;13.48;;
23543;SDS011;11950;51.230;4.012;2023-06-22T13:36:28;21.33;;;14.93;;
23543;SDS011;11950;51.230;4.012;2023-06-22T13:38:56;18.08;;;14.52;;
23543;SDS011;11950;51.230;4.012;2023-06-22T13:41:22;16.73;;;13.95;;
23543;SDS011;11950;51.230;4.012;2023-06-22T13:43:48;18.30;;;14.73;;
23543;SDS011;11950;51.230;4.012;2023-06-22T13:46:15;19.42;;;15.82;;
23543;SDS011;11950;51.230;4.012;2023-06-22T13:48:41;19.70;;;15.32;;
23543;SDS011;11950;51.230;4.012;2023-06-22T13:51:07;21.30;;;17.02;;
23543;SDS011;11950;51.230;4.012;2023-06-22T13:53:33;20.33;;;15.85;;
23543;SDS011;11950;51.230;4.012;2023-06-22T13:56:00;23.08;;;18.05;;
23543;SDS011;11950;51.230;4.012;2023-06-22T13:58:26;23.92;;;19.73;;
23543;SDS011;11950;51.230;4.012;2023-06-22T14:00:52;24.45;;;18.88;;
23543;SDS011;11950;51.230;4.012;2023-06-22T14:03:19;23.95;;;19.23;;
23543;SDS011;11950;51.230;4.012;2023-06-22T14:05:45;23.17;;;20.63;;
23543;SDS011;11950;51.230;4.012;2023-06-22T14:08:12;26.65;;;21.55;;
23543;SDS011;11950;51.230;4.012;2023-06-22T14:10:38;23.65;;;19.77;;
23543;SDS011;11950;51.230;4.012;2023-06-22T14:13:04;28.33;;;22.52;;
23543;SDS011;11950;51.230;4.012;2023-06-22T14:15:31;31.15;;;23.35;;
23543;SDS011;11950;51.230;4.012;2023-06-22T14:17:58;32.58;;;23.38;;
23543;SDS011;11950;51.230;4.012;2023-06-22T14:20:24;30.77;;;23.52;;
23543;SDS011;11950;51.230;4.012;2023-06-22T14:22:51;31.92;;;22.58;;
23543;SDS011;11950;51.230;4.012;2023-06-22T14:25:17;29.98;;;23.25;;
23543;SDS011;11950;51.230;4.012;2023-06-22T14:27:43;27.02;;;22.17;;
23543;SDS011;11950;51.230;4.012;2023-06-22T14:30:10;31.15;;;21.23;;
23543;SDS011;11950;51.230;4.012;2023-06-22T14:32:36;26.40;;;21.95;;
23543;SDS011;11950;51.230;4.012;2023-06-22T14:35:02;29.42;;;22.95;;
23543;SDS011;11950;51.230;4.012;2023-06-22T14:37:29;29.35;;;23.83;;
23543;SDS011;11950;51.230;4.012;2023-06-22T14:39:55;30.08;;;24.92;;
23543;SDS011;11950;51.230;4.012;2023-06-22T14:42:21;32.85;;;25.92;;
23543;SDS011;11950;51.230;4.012;2023-06-22T14:44:48;34.13;;;26.40;;
23543;SDS011;11950;51.230;4.012;2023-06-22T14:47:14;31.35;;;26.05;;